sensor_id;sensor_type;location;lat;lon;timestamp;pressure;altitude;pressure_sealevel;temperature;humidity
11440;BME280;5776;51.814;4.510;2022-11-28T00:03:46;100945.19;;;8.01;100.00
11440;BME280;5776;51.814;4.510;2022-11-28T00:06:12;100940.31;;;8.04;100.00
11440;BME280;5776;51.814;4.510;2022-11-28T00:08:39;100928.69;;;8.03;100.00
11440;BME280;5776;51.814;4.510;2022-11-28T00:11:06;100931.66;;;8.07;100.00
11440;BME280;5776;51.814;4.510;2022-11-28T00:13:33;100933.81;;;8.05;100.00
11440;BME280;5776;51.814;4.510;2022-11-28T00:16:01;100927.34;;;8.06;100.00
11440;BME280;5776;51.814;4.510;2022-11-28T00:18:28;100932.75;;;8.06;100.00
11440;BME280;5776;51.814;4.510;2022-11-28T00:21:13;100935.47;;;8.06;100.00
11440;BME280;5776;51.814;4.510;2022-11-28T00:23:42;100927.06;;;8.07;100.00
11440;BME280;5776;51.814;4.510;2022-11-28T00:26:14;100926.78;;;8.04;100.00
11440;BME280;5776;51.814;4.510;2022-11-28T00:28:41;100932.47;;;8.07;100.00
11440;BME280;5776;51.814;4.510;2022-11-28T00:31:12;100926.25;;;8.07;100.00
11440;BME280;5776;51.814;4.510;2022-11-28T00:33:38;100926.25;;;8.07;100.00
11440;BME280;5776;51.814;4.510;2022-11-28T00:36:04;100930.03;;;8.06;100.00
11440;BME280;5776;51.814;4.510;2022-11-28T00:38:30;100923.28;;;8.08;100.00
11440;BME280;5776;51.814;4.510;2022-11-28T00:41:03;100925.69;;;8.05;100.00
11440;BME280;5776;51.814;4.510;2022-11-28T00:43:29;100927.34;;;8.11;100.00
11440;BME280;5776;51.814;4.510;2022-11-28T00:45:55;100936.00;;;8.13;100.00
11440;BME280;5776;51.814;4.510;2022-11-28T00:48:21;100925.72;;;8.10;100.00
11440;BME280;5776;51.814;4.510;2022-11-28T00:50:47;100929.50;;;8.14;100.00
11440;BME280;5776;51.814;4.510;2022-11-28T00:53:14;100930.06;;;8.16;100.00
11440;BME280;5776;51.814;4.510;2022-11-28T00:55:40;100919.22;;;8.16;100.00
11440;BME280;5776;51.814;4.510;2022-11-28T00:58:06;100917.59;;;8.15;100.00
11440;BME280;5776;51.814;4.510;2022-11-28T01:00:32;100908.41;;;8.16;100.00
11440;BME280;5776;51.814;4.510;2022-11-28T01:02:58;100907.31;;;8.17;100.00
11440;BME280;5776;51.814;4.510;2022-11-28T01:05:25;100910.03;;;8.17;100.00
11440;BME280;5776;51.814;4.510;2022-11-28T01:07:51;100917.34;;;8.16;100.00
11440;BME280;5776;51.814;4.510;2022-11-28T01:10:17;100913.28;;;8.19;100.00
11440;BME280;5776;51.814;4.510;2022-11-28T01:12:43;100907.88;;;8.19;100.00
11440;BME280;5776;51.814;4.510;2022-11-28T01:15:11;100906.78;;;8.20;100.00
11440;BME280;5776;51.814;4.510;2022-11-28T01:17:37;100905.16;;;8.19;100.00
11440;BME280;5776;51.814;4.510;2022-11-28T01:20:05;100895.69;;;8.21;100.00
11440;BME280;5776;51.814;4.510;2022-11-28T01:22:32;100899.75;;;8.24;100.00
11440;BME280;5776;51.814;4.510;2022-11-28T01:24:57;100899.19;;;8.22;100.00
11440;BME280;5776;51.814;4.510;2022-11-28T01:27:23;100898.13;;;8.23;100.00
11440;BME280;5776;51.814;4.510;2022-11-28T01:29:49;100894.88;;;8.21;100.00
11440;BME280;5776;51.814;4.510;2022-11-28T01:32:15;100898.66;;;8.20;100.00
11440;BME280;5776;51.814;4.510;2022-11-28T01:34:41;100902.47;;;8.19;100.00
11440;BME280;5776;51.814;4.510;2022-11-28T01:37:07;100896.50;;;8.17;100.00
11440;BME280;5776;51.814;4.510;2022-11-28T01:39:33;100905.41;;;8.22;100.00
11440;BME280;5776;51.814;4.510;2022-11-28T01:41:59;100901.09;;;8.21;100.00
11440;BME280;5776;51.814;4.510;2022-11-28T01:46:51;100914.91;;;8.25;100.00
11440;BME280;5776;51.814;4.510;2022-11-28T01:49:24;100902.72;;;8.22;100.00
11440;BME280;5776;51.814;4.510;2022-11-28T01:52:05;100892.72;;;8.23;100.00
11440;BME280;5776;51.814;4.510;2022-11-28T01:54:32;100882.41;;;8.20;100.00
11440;BME280;5776;51.814;4.510;2022-11-28T01:57:04;100881.91;;;8.23;100.00
11440;BME280;5776;51.814;4.510;2022-11-28T01:59:35;100885.16;;;8.25;100.00
11440;BME280;5776;51.814;4.510;2022-11-28T02:02:06;100885.69;;;8.22;100.00
11440;BME280;5776;51.814;4.510;2022-11-28T02:04:33;100898.13;;;8.23;100.00
11440;BME280;5776;51.814;4.510;2022-11-28T02:06:59;100888.13;;;8.23;100.00
11440;BME280;5776;51.814;4.510;2022-11-28T02:09:25;100900.28;;;8.26;100.00
11440;BME280;5776;51.814;4.510;2022-11-28T02:14:58;100901.38;;;8.25;100.00
11440;BME280;5776;51.814;4.510;2022-11-28T02:25:54;100898.13;;;8.28;100.00
11440;BME280;5776;51.814;4.510;2022-11-28T02:31:27;100897.03;;;8.24;100.00
11440;BME280;5776;51.814;4.510;2022-11-28T02:34:02;100892.72;;;8.23;100.00
11440;BME280;5776;51.814;4.510;2022-11-28T02:36:37;100892.72;;;8.23;100.00
11440;BME280;5776;51.814;4.510;2022-11-28T02:39:11;100886.47;;;8.22;100.00
11440;BME280;5776;51.814;4.510;2022-11-28T02:41:53;100880.81;;;8.24;100.00
11440;BME280;5776;51.814;4.510;2022-11-28T02:47:46;100895.97;;;8.25;100.00
11440;BME280;5776;51.814;4.510;2022-11-28T02:50:27;100883.81;;;8.28;100.00
11440;BME280;5776;51.814;4.510;2022-11-28T02:53:08;100887.56;;;8.27;100.00
11440;BME280;5776;51.814;4.510;2022-11-28T02:55:38;100893.78;;;8.22;100.00
11440;BME280;5776;51.814;4.510;2022-11-28T02:58:05;100891.63;;;8.19;100.00
11440;BME280;5776;51.814;4.510;2022-11-28T03:00:32;100897.03;;;8.19;100.00
11440;BME280;5776;51.814;4.510;2022-11-28T03:03:10;100881.91;;;8.23;100.00
11440;BME280;5776;51.814;4.510;2022-11-28T03:14:25;100872.69;;;8.24;100.00
11440;BME280;5776;51.814;4.510;2022-11-28T03:19:34;100887.56;;;8.27;100.00
11440;BME280;5776;51.814;4.510;2022-11-28T03:22:18;100890.56;;;8.25;100.00
11440;BME280;5776;51.814;4.510;2022-11-28T03:27:50;100891.09;;;8.17;100.00
11440;BME280;5776;51.814;4.510;2022-11-28T03:30:29;100891.09;;;8.17;100.00
11440;BME280;5776;51.814;4.510;2022-11-28T03:32:59;100901.66;;;8.18;100.00
11440;BME280;5776;51.814;4.510;2022-11-28T03:35:30;100893.78;;;8.22;100.00
11440;BME280;5776;51.814;4.510;2022-11-28T03:38:06;100897.03;;;8.24;100.00
11440;BME280;5776;51.814;4.510;2022-11-28T03:40:40;100887.03;;;8.25;100.00
11440;BME280;5776;51.814;4.510;2022-11-28T03:43:11;100883.50;;;8.24;100.00
11440;BME280;5776;51.814;4.510;2022-11-28T03:45:40;100886.22;;;8.24;100.00
11440;BME280;5776;51.814;4.510;2022-11-28T03:48:11;100879.47;;;8.21;100.00
11440;BME280;5776;51.814;4.510;2022-11-28T03:53:55;100876.75;;;8.21;100.00
11440;BME280;5776;51.814;4.510;2022-11-28T03:56:31;100874.31;;;8.20;100.00
11440;BME280;5776;51.814;4.510;2022-11-28T03:59:06;100888.94;;;8.24;100.00
11440;BME280;5776;51.814;4.510;2022-11-28T04:04:24;100886.22;;;8.24;100.00
11440;BME280;5776;51.814;4.510;2022-11-28T04:07:19;100876.50;;;8.23;100.00
11440;BME280;5776;51.814;4.510;2022-11-28T04:15:40;100881.91;;;8.23;100.00
11440;BME280;5776;51.814;4.510;2022-11-28T04:18:34;100881.91;;;8.23;100.00
11440;BME280;5776;51.814;4.510;2022-11-28T04:21:09;100879.47;;;8.21;100.00
11440;BME280;5776;51.814;4.510;2022-11-28T04:23:39;100880.81;;;8.19;100.00
11440;BME280;5776;51.814;4.510;2022-11-28T04:26:13;100885.69;;;8.17;100.00
11440;BME280;5776;51.814;4.510;2022-11-28T04:28:40;100884.06;;;8.21;100.00
11440;BME280;5776;51.814;4.510;2022-11-28T04:31:07;100890.56;;;8.25;100.00
11440;BME280;5776;51.814;4.510;2022-11-28T04:33:37;100891.38;;;8.26;100.00
11440;BME280;5776;51.814;4.510;2022-11-28T04:36:06;100893.28;;;8.25;100.00
11440;BME280;5776;51.814;4.510;2022-11-28T04:38:33;100888.94;;;8.24;100.00
11440;BME280;5776;51.814;4.510;2022-11-28T04:41:14;100888.13;;;8.23;100.00
11440;BME280;5776;51.814;4.510;2022-11-28T04:43:48;100906.25;;;8.23;100.00
11440;BME280;5776;51.814;4.510;2022-11-28T04:46:21;100898.94;;;8.23;100.00
11440;BME280;5776;51.814;4.510;2022-11-28T04:48:49;100895.69;;;8.27;100.00
11440;BME280;5776;51.814;4.510;2022-11-28T04:51:23;100897.59;;;8.26;100.00
11440;BME280;5776;51.814;4.510;2022-11-28T04:54:17;100900.28;;;8.26;100.00
11440;BME280;5776;51.814;4.510;2022-11-28T04:56:51;100900.28;;;8.26;100.00
11440;BME280;5776;51.814;4.510;2022-11-28T04:59:20;100902.19;;;8.26;100.00
11440;BME280;5776;51.814;4.510;2022-11-28T05:01:48;100899.19;;;8.27;100.00
11440;BME280;5776;51.814;4.510;2022-11-28T05:04:14;100905.44;;;8.28;100.00
11440;BME280;5776;51.814;4.510;2022-11-28T05:06:42;100900.03;;;8.28;100.00
11440;BME280;5776;51.814;4.510;2022-11-28T05:09:12;100905.72;;;8.26;100.00
11440;BME280;5776;51.814;4.510;2022-11-28T05:11:38;100910.03;;;8.27;100.00
11440;BME280;5776;51.814;4.510;2022-11-28T05:14:05;100914.09;;;8.25;100.00
11440;BME280;5776;51.814;4.510;2022-11-28T05:16:31;100911.13;;;8.26;100.00
11440;BME280;5776;51.814;4.510;2022-11-28T05:18:57;100915.97;;;8.24;100.00
11440;BME280;5776;51.814;4.510;2022-11-28T05:21:22;100921.13;;;8.26;100.00
11440;BME280;5776;51.814;4.510;2022-11-28T05:23:48;100917.63;;;8.25;100.00
11440;BME280;5776;51.814;4.510;2022-11-28T05:26:17;100924.91;;;8.25;100.00
11440;BME280;5776;51.814;4.510;2022-11-28T05:28:48;100924.66;;;8.26;100.00
11440;BME280;5776;51.814;4.510;2022-11-28T05:31:17;100918.97;;;8.28;100.00
11440;BME280;5776;51.814;4.510;2022-11-28T05:33:43;100925.75;;;8.30;100.00
11440;BME280;5776;51.814;4.510;2022-11-28T05:36:11;100918.13;;;8.32;100.00
11440;BME280;5776;51.814;4.510;2022-11-28T05:38:40;100931.66;;;8.32;100.00
11440;BME280;5776;51.814;4.510;2022-11-28T05:41:07;100927.91;;;8.33;100.00
11440;BME280;5776;51.814;4.510;2022-11-28T05:43:33;100930.31;;;8.30;100.00
11440;BME280;5776;51.814;4.510;2022-11-28T05:45:59;100927.34;;;8.31;100.00
11440;BME280;5776;51.814;4.510;2022-11-28T05:48:25;100920.34;;;8.30;100.00
11440;BME280;5776;51.814;4.510;2022-11-28T05:50:51;100920.84;;;8.27;100.00
11440;BME280;5776;51.814;4.510;2022-11-28T05:53:18;100916.78;;;8.30;100.00
11440;BME280;5776;51.814;4.510;2022-11-28T05:55:45;100920.84;;;8.27;100.00
11440;BME280;5776;51.814;4.510;2022-11-28T05:58:11;100920.59;;;8.29;100.00
11440;BME280;5776;51.814;4.510;2022-11-28T06:00:38;100931.16;;;8.30;100.00
11440;BME280;5776;51.814;4.510;2022-11-28T06:03:04;100922.19;;;8.30;100.00
11440;BME280;5776;51.814;4.510;2022-11-28T06:05:31;100923.84;;;8.31;100.00
11440;BME280;5776;51.814;4.510;2022-11-28T06:07:57;100919.78;;;8.33;100.00
11440;BME280;5776;51.814;4.510;2022-11-28T06:10:23;100928.72;;;8.34;100.00
11440;BME280;5776;51.814;4.510;2022-11-28T06:12:49;100925.19;;;8.33;100.00
11440;BME280;5776;51.814;4.510;2022-11-28T06:15:15;100931.97;;;8.31;100.00
11440;BME280;5776;51.814;4.510;2022-11-28T06:17:41;100934.94;;;8.29;100.00
11440;BME280;5776;51.814;4.510;2022-11-28T06:20:07;100929.50;;;8.34;100.00
11440;BME280;5776;51.814;4.510;2022-11-28T06:22:36;100923.84;;;8.36;100.00
11440;BME280;5776;51.814;4.510;2022-11-28T06:25:02;100923.03;;;8.35;100.00
11440;BME280;5776;51.814;4.510;2022-11-28T06:27:28;100938.72;;;8.33;100.00
11440;BME280;5776;51.814;4.510;2022-11-28T06:29:54;100937.63;;;8.34;100.00
11440;BME280;5776;51.814;4.510;2022-11-28T06:32:20;100939.53;;;8.34;100.00
11440;BME280;5776;51.814;4.510;2022-11-28T06:34:46;100937.63;;;8.34;100.00
11440;BME280;5776;51.814;4.510;2022-11-28T06:37:11;100942.50;;;8.37;100.00
11440;BME280;5776;51.814;4.510;2022-11-28T06:39:37;100940.88;;;8.36;100.00
11440;BME280;5776;51.814;4.510;2022-11-28T06:42:04;100949.56;;;8.38;100.00
11440;BME280;5776;51.814;4.510;2022-11-28T06:44:30;100948.50;;;8.39;100.00
11440;BME280;5776;51.814;4.510;2022-11-28T06:46:56;100951.72;;;8.36;100.00
11440;BME280;5776;51.814;4.510;2022-11-28T06:49:22;100948.75;;;8.38;100.00
11440;BME280;5776;51.814;4.510;2022-11-28T06:51:47;100956.59;;;8.39;100.00
11440;BME280;5776;51.814;4.510;2022-11-28T06:54:13;100954.97;;;8.38;100.00
11440;BME280;5776;51.814;4.510;2022-11-28T06:56:40;100959.31;;;8.39;100.00
11440;BME280;5776;51.814;4.510;2022-11-28T06:59:06;100953.06;;;8.39;100.00
11440;BME280;5776;51.814;4.510;2022-11-28T07:01:32;100966.38;;;8.40;100.00
11440;BME280;5776;51.814;4.510;2022-11-28T07:03:59;100965.78;;;8.38;100.00
11440;BME280;5776;51.814;4.510;2022-11-28T07:06:26;100972.84;;;8.39;100.00
11440;BME280;5776;51.814;4.510;2022-11-28T07:08:55;100972.84;;;8.39;100.00
11440;BME280;5776;51.814;4.510;2022-11-28T07:11:29;100970.13;;;8.39;100.00
11440;BME280;5776;51.814;4.510;2022-11-28T07:13:56;100968.50;;;8.38;100.00
11440;BME280;5776;51.814;4.510;2022-11-28T07:16:25;100977.19;;;8.40;100.00
11440;BME280;5776;51.814;4.510;2022-11-28T07:18:52;100969.31;;;8.39;100.00
11440;BME280;5776;51.814;4.510;2022-11-28T07:21:19;100970.69;;;8.41;100.00
11440;BME280;5776;51.814;4.510;2022-11-28T07:23:45;100977.72;;;8.42;100.00
11440;BME280;5776;51.814;4.510;2022-11-28T07:26:13;100975.84;;;8.43;100.00
11440;BME280;5776;51.814;4.510;2022-11-28T07:28:39;100977.72;;;8.42;100.00
11440;BME280;5776;51.814;4.510;2022-11-28T07:31:08;100973.94;;;8.43;100.00
11440;BME280;5776;51.814;4.510;2022-11-28T07:33:40;100976.66;;;8.43;100.00
11440;BME280;5776;51.814;4.510;2022-11-28T07:36:11;100979.34;;;8.43;100.00
11440;BME280;5776;51.814;4.510;2022-11-28T07:38:38;100984.78;;;8.43;100.00
11440;BME280;5776;51.814;4.510;2022-11-28T07:41:09;100979.34;;;8.43;100.00
11440;BME280;5776;51.814;4.510;2022-11-28T07:43:36;100988.03;;;8.46;100.00
11440;BME280;5776;51.814;4.510;2022-11-28T07:46:04;100988.84;;;8.46;100.00
11440;BME280;5776;51.814;4.510;2022-11-28T07:48:30;100994.25;;;8.46;100.00
11440;BME280;5776;51.814;4.510;2022-11-28T07:50:56;101000.72;;;8.45;100.00
11440;BME280;5776;51.814;4.510;2022-11-28T07:53:22;101002.38;;;8.46;100.00
11440;BME280;5776;51.814;4.510;2022-11-28T07:55:48;100998.31;;;8.49;100.00
11440;BME280;5776;51.814;4.510;2022-11-28T07:58:14;101001.28;;;8.47;100.00
11440;BME280;5776;51.814;4.510;2022-11-28T08:00:40;101012.09;;;8.47;100.00
11440;BME280;5776;51.814;4.510;2022-11-28T08:03:06;101009.38;;;8.47;100.00
11440;BME280;5776;51.814;4.510;2022-11-28T08:05:32;101014.81;;;8.47;100.00
11440;BME280;5776;51.814;4.510;2022-11-28T08:07:58;101018.31;;;8.48;100.00
11440;BME280;5776;51.814;4.510;2022-11-28T08:10:24;101018.31;;;8.48;100.00
11440;BME280;5776;51.814;4.510;2022-11-28T08:12:50;101012.09;;;8.47;100.00
11440;BME280;5776;51.814;4.510;2022-11-28T08:15:16;101023.72;;;8.48;100.00
11440;BME280;5776;51.814;4.510;2022-11-28T08:17:42;101017.00;;;8.50;100.00
11440;BME280;5776;51.814;4.510;2022-11-28T08:20:09;101013.75;;;8.48;100.00
11440;BME280;5776;51.814;4.510;2022-11-28T08:22:35;101011.84;;;8.49;100.00
11440;BME280;5776;51.814;4.510;2022-11-28T08:25:01;101012.91;;;8.48;100.00
11440;BME280;5776;51.814;4.510;2022-11-28T08:27:26;101007.22;;;8.49;100.00
11440;BME280;5776;51.814;4.510;2022-11-28T08:29:52;101006.44;;;8.49;100.00
11440;BME280;5776;51.814;4.510;2022-11-28T08:32:18;101006.16;;;8.50;100.00
11440;BME280;5776;51.814;4.510;2022-11-28T08:34:45;101004.25;;;8.51;100.00
11440;BME280;5776;51.814;4.510;2022-11-28T08:37:10;101010.50;;;8.51;100.00
11440;BME280;5776;51.814;4.510;2022-11-28T08:39:36;101016.72;;;8.52;100.00
11440;BME280;5776;51.814;4.510;2022-11-28T08:42:03;101020.78;;;8.54;100.00
11440;BME280;5776;51.814;4.510;2022-11-28T08:44:29;101021.06;;;8.53;100.00
11440;BME280;5776;51.814;4.510;2022-11-28T08:46:56;101021.88;;;8.53;100.00
11440;BME280;5776;51.814;4.510;2022-11-28T08:49:22;101027.00;;;8.55;100.00
11440;BME280;5776;51.814;4.510;2022-11-28T08:51:48;101020.78;;;8.54;100.00
11440;BME280;5776;51.814;4.510;2022-11-28T08:54:14;101020.50;;;8.56;100.00
11440;BME280;5776;51.814;4.510;2022-11-28T08:56:40;101014.28;;;8.55;100.00
11440;BME280;5776;51.814;4.510;2022-11-28T08:59:06;101010.75;;;8.55;100.00
11440;BME280;5776;51.814;4.510;2022-11-28T09:01:32;101011.28;;;8.57;100.00
11440;BME280;5776;51.814;4.510;2022-11-28T09:03:59;101016.72;;;8.57;100.00
11440;BME280;5776;51.814;4.510;2022-11-28T09:06:25;101014.00;;;8.57;100.00
11440;BME280;5776;51.814;4.510;2022-11-28T09:08:51;101017.25;;;8.59;100.00
11440;BME280;5776;51.814;4.510;2022-11-28T09:11:20;101019.16;;;8.58;100.00
11440;BME280;5776;51.814;4.510;2022-11-28T09:13:46;101020.78;;;8.59;100.00
11440;BME280;5776;51.814;4.510;2022-11-28T09:16:13;101022.13;;;8.62;100.00
11440;BME280;5776;51.814;4.510;2022-11-28T09:18:39;101028.63;;;8.61;100.00
11440;BME280;5776;51.814;4.510;2022-11-28T09:21:08;101035.66;;;8.62;100.00
11440;BME280;5776;51.814;4.510;2022-11-28T09:23:36;101032.16;;;8.61;100.00
11440;BME280;5776;51.814;4.510;2022-11-28T09:26:13;101027.81;;;8.60;100.00
11440;BME280;5776;51.814;4.510;2022-11-28T09:28:39;101037.31;;;8.63;100.00
11440;BME280;5776;51.814;4.510;2022-11-28T09:31:06;101038.13;;;8.63;100.00
11440;BME280;5776;51.814;4.510;2022-11-28T09:33:32;101035.41;;;8.63;100.00
11440;BME280;5776;51.814;4.510;2022-11-28T09:35:58;101036.47;;;8.62;100.00
11440;BME280;5776;51.814;4.510;2022-11-28T09:38:28;101036.22;;;8.64;100.00
11440;BME280;5776;51.814;4.510;2022-11-28T09:40:54;101033.75;;;8.62;100.00
11440;BME280;5776;51.814;4.510;2022-11-28T09:45:59;101038.91;;;8.64;100.00
11440;BME280;5776;51.814;4.510;2022-11-28T09:48:54;101044.06;;;8.65;100.00
11440;BME280;5776;51.814;4.510;2022-11-28T09:51:28;101057.31;;;8.67;100.00
11440;BME280;5776;51.814;4.510;2022-11-28T09:56:47;101055.72;;;8.66;100.00
11440;BME280;5776;51.814;4.510;2022-11-28T09:59:40;101047.31;;;8.68;100.00
11440;BME280;5776;51.814;4.510;2022-11-28T10:04:45;101050.56;;;8.70;100.00
11440;BME280;5776;51.814;4.510;2022-11-28T10:10:18;101054.06;;;8.70;100.00
11440;BME280;5776;51.814;4.510;2022-11-28T10:13:09;101058.41;;;8.71;100.00
11440;BME280;5776;51.814;4.510;2022-11-28T10:18:36;101053.56;;;8.73;100.00
11440;BME280;5776;51.814;4.510;2022-11-28T10:22:05;101057.31;;;8.72;100.00
11440;BME280;5776;51.814;4.510;2022-11-28T10:24:17;101061.69;;;8.73;100.00
11440;BME280;5776;51.814;4.510;2022-11-28T10:26:47;101059.53;;;8.75;100.00
11440;BME280;5776;51.814;4.510;2022-11-28T10:29:29;101068.44;;;8.76;100.00
11440;BME280;5776;51.814;4.510;2022-11-28T10:31:58;101069.50;;;8.75;100.00
11440;BME280;5776;51.814;4.510;2022-11-28T10:37:23;101072.50;;;8.78;100.00
11440;BME280;5776;51.814;4.510;2022-11-28T10:39:50;101065.44;;;8.77;100.00
11440;BME280;5776;51.814;4.510;2022-11-28T10:42:40;101076.28;;;8.77;100.00
11440;BME280;5776;51.814;4.510;2022-11-28T10:48:11;101075.22;;;8.78;100.00
11440;BME280;5776;51.814;4.510;2022-11-28T10:56:10;101075.22;;;8.78;100.00
11440;BME280;5776;51.814;4.510;2022-11-28T11:01:30;101074.69;;;8.81;100.00
11440;BME280;5776;51.814;4.510;2022-11-28T11:03:59;101080.91;;;8.82;100.00
11440;BME280;5776;51.814;4.510;2022-11-28T11:06:25;101076.56;;;8.81;100.00
11440;BME280;5776;51.814;4.510;2022-11-28T11:08:51;101070.88;;;8.82;100.00
11440;BME280;5776;51.814;4.510;2022-11-28T11:13:58;101071.97;;;8.81;100.00
11440;BME280;5776;51.814;4.510;2022-11-28T11:16:25;101073.31;;;8.84;100.00
11440;BME280;5776;51.814;4.510;2022-11-28T11:19:28;101064.38;;;8.83;100.00
11440;BME280;5776;51.814;4.510;2022-11-28T11:22:27;101066.81;;;8.85;100.00
11440;BME280;5776;51.814;4.510;2022-11-28T11:27:38;101066.56;;;8.86;100.00
11440;BME280;5776;51.814;4.510;2022-11-28T11:30:30;101050.31;;;8.86;100.00
11440;BME280;5776;51.814;4.510;2022-11-28T11:32:58;101045.69;;;8.87;100.00
11440;BME280;5776;51.814;4.510;2022-11-28T11:35:31;101042.97;;;8.87;100.00
11440;BME280;5776;51.814;4.510;2022-11-28T11:40:45;101053.00;;;8.92;100.00
11440;BME280;5776;51.814;4.510;2022-11-28T11:43:32;101050.28;;;8.92;100.00
11440;BME280;5776;51.814;4.510;2022-11-28T11:46:12;101051.09;;;8.92;100.00
11440;BME280;5776;51.814;4.510;2022-11-28T11:48:40;101051.91;;;8.93;100.00
11440;BME280;5776;51.814;4.510;2022-11-28T11:54:05;101058.16;;;8.93;100.00
11440;BME280;5776;51.814;4.510;2022-11-28T11:56:35;101047.84;;;8.95;100.00
11440;BME280;5776;51.814;4.510;2022-11-28T11:59:05;101057.88;;;8.95;100.00
11440;BME280;5776;51.814;4.510;2022-11-28T12:01:37;101056.81;;;8.96;100.00
11440;BME280;5776;51.814;4.510;2022-11-28T12:04:06;101055.72;;;8.97;100.00
11440;BME280;5776;51.814;4.510;2022-11-28T12:06:42;101055.44;;;8.98;100.00
11440;BME280;5776;51.814;4.510;2022-11-28T12:09:48;101058.97;;;8.99;100.00
11440;BME280;5776;51.814;4.510;2022-11-28T12:12:25;101066.28;;;8.98;100.00
11440;BME280;5776;51.814;4.510;2022-11-28T12:14:54;101050.84;;;8.99;100.00
11440;BME280;5776;51.814;4.510;2022-11-28T12:25:58;101059.22;;;9.02;100.00
11440;BME280;5776;51.814;4.510;2022-11-28T12:33:57;101060.56;;;9.05;100.00
11440;BME280;5776;51.814;4.510;2022-11-28T12:47:01;101084.94;;;9.10;100.00
11440;BME280;5776;51.814;4.510;2022-11-28T12:57:39;101093.38;;;9.14;100.00
11440;BME280;5776;51.814;4.510;2022-11-28T13:00:24;101096.09;;;9.14;100.00
11440;BME280;5776;51.814;4.510;2022-11-28T13:16:28;101094.72;;;9.16;100.00
11440;BME280;5776;51.814;4.510;2022-11-28T13:21:41;101090.09;;;9.17;100.00
11440;BME280;5776;51.814;4.510;2022-11-28T13:24:28;101089.31;;;9.21;100.00
11440;BME280;5776;51.814;4.510;2022-11-28T13:32:47;101102.03;;;9.21;100.00
11440;BME280;5776;51.814;4.510;2022-11-28T13:35:17;101091.47;;;9.19;100.00
11440;BME280;5776;51.814;4.510;2022-11-28T13:40:32;101101.22;;;9.20;100.00
11440;BME280;5776;51.814;4.510;2022-11-28T13:43:14;101098.22;;;9.22;100.00
11440;BME280;5776;51.814;4.510;2022-11-28T13:45:43;101111.53;;;9.23;100.00
11440;BME280;5776;51.814;4.510;2022-11-28T13:53:40;101109.34;;;9.25;100.00
11440;BME280;5776;51.814;4.510;2022-11-28T13:58:56;101113.94;;;9.25;100.00
11440;BME280;5776;51.814;4.510;2022-11-28T14:01:27;101104.19;;;9.24;100.00
11440;BME280;5776;51.814;4.510;2022-11-28T14:06:44;101109.63;;;9.29;100.00
11440;BME280;5776;51.814;4.510;2022-11-28T14:12:00;101106.91;;;9.29;100.00
11440;BME280;5776;51.814;4.510;2022-11-28T14:20:19;101123.16;;;9.29;100.00
11440;BME280;5776;51.814;4.510;2022-11-28T14:25:50;101124.25;;;9.28;100.00
11440;BME280;5776;51.814;4.510;2022-11-28T14:28:29;101137.53;;;9.24;100.00
11440;BME280;5776;51.814;4.510;2022-11-28T14:31:29;101145.13;;;9.27;100.00
11440;BME280;5776;51.814;4.510;2022-11-28T14:36:34;101144.84;;;9.19;100.00
11440;BME280;5776;51.814;4.510;2022-11-28T14:52:36;101157.84;;;9.06;100.00
11440;BME280;5776;51.814;4.510;2022-11-28T14:55:03;101154.34;;;9.06;100.00
11440;BME280;5776;51.814;4.510;2022-11-28T14:57:32;101158.41;;;8.98;100.00
11440;BME280;5776;51.814;4.510;2022-11-28T15:00:06;101160.81;;;8.90;100.00
11440;BME280;5776;51.814;4.510;2022-11-28T15:16:02;101186.28;;;8.83;100.00
11440;BME280;5776;51.814;4.510;2022-11-28T15:18:29;101181.94;;;8.98;100.00
11440;BME280;5776;51.814;4.510;2022-11-28T15:20:59;101187.41;;;9.03;100.00
11440;BME280;5776;51.814;4.510;2022-11-28T15:23:35;101183.84;;;9.07;100.00
11440;BME280;5776;51.814;4.510;2022-11-28T15:26:04;101181.44;;;9.01;100.00
11440;BME280;5776;51.814;4.510;2022-11-28T15:28:30;101183.03;;;8.97;100.00
11440;BME280;5776;51.814;4.510;2022-11-28T15:31:02;101182.47;;;8.90;100.00
11440;BME280;5776;51.814;4.510;2022-11-28T15:33:29;101181.66;;;8.89;100.00
11440;BME280;5776;51.814;4.510;2022-11-28T15:38:24;101184.13;;;8.96;100.00
11440;BME280;5776;51.814;4.510;2022-11-28T15:40:52;101183.59;;;8.94;100.00
11440;BME280;5776;51.814;4.510;2022-11-28T15:43:19;101185.72;;;8.86;100.00
11440;BME280;5776;51.814;4.510;2022-11-28T15:45:50;101185.19;;;8.84;100.00
11440;BME280;5776;51.814;4.510;2022-11-28T15:48:28;101197.66;;;8.91;100.00
11440;BME280;5776;51.814;4.510;2022-11-28T15:50:57;101199.53;;;8.90;100.00
11440;BME280;5776;51.814;4.510;2022-11-28T15:53:23;101204.16;;;8.90;100.00
11440;BME280;5776;51.814;4.510;2022-11-28T15:56:14;101207.41;;;8.92;100.00
11440;BME280;5776;51.814;4.510;2022-11-28T15:58:43;101209.56;;;8.95;100.00
11440;BME280;5776;51.814;4.510;2022-11-28T16:01:20;101210.38;;;8.95;100.00
11440;BME280;5776;51.814;4.510;2022-11-28T16:03:56;101208.22;;;8.92;100.00
11440;BME280;5776;51.814;4.510;2022-11-28T16:06:27;101209.56;;;8.95;100.00
11440;BME280;5776;51.814;4.510;2022-11-28T16:08:56;101207.66;;;8.95;100.00
11440;BME280;5776;51.814;4.510;2022-11-28T16:11:25;101207.66;;;8.95;100.00
11440;BME280;5776;51.814;4.510;2022-11-28T16:13:54;101214.44;;;8.98;100.00
11440;BME280;5776;51.814;4.510;2022-11-28T16:16:32;101228.00;;;8.98;100.00
11440;BME280;5776;51.814;4.510;2022-11-28T16:19:02;101227.19;;;8.97;100.00
11440;BME280;5776;51.814;4.510;2022-11-28T16:21:41;101230.44;;;8.94;100.00
11440;BME280;5776;51.814;4.510;2022-11-28T16:24:30;101234.50;;;8.97;100.00
11440;BME280;5776;51.814;4.510;2022-11-28T16:27:01;101238.31;;;8.96;100.00
11440;BME280;5776;51.814;4.510;2022-11-28T16:29:33;101231.78;;;8.97;100.00
11440;BME280;5776;51.814;4.510;2022-11-28T16:32:19;101229.34;;;8.95;100.00
11440;BME280;5776;51.814;4.510;2022-11-28T16:34:53;101234.50;;;8.97;100.00
11440;BME280;5776;51.814;4.510;2022-11-28T16:37:25;101233.16;;;8.94;100.00